Time;durP1;ratioP1;P1;durP2;ratioP2;P2;SDS_P1;SDS_P2;PMS_P1;PMS_P2;Temp;Humidity;BMP_temperature;BMP_pressure;BME280_temperature;BME280_humidity;BME280_pressure;Samples;Min_cycle;Max_cycle;Signal;HPM_P1;HPM_P2
2022/07/11 00:01:32;;;;;;;2.47;2.28;;;;;;;21.64;46.84;100554.06;5026990;28;20485;-84
2022/07/11 00:03:58;;;;;;;2.95;2.10;;;;;;;21.62;46.74;100556.94;5027558;28;20469;-84
2022/07/11 00:06:25;;;;;;;2.50;2.30;;;;;;;21.63;47.03;100557.81;5045511;28;20428;-84
2022/07/11 00:08:52;;;;;;;2.75;2.20;;;;;;;21.64;47.15;100554.06;5011643;28;20049;-78
2022/07/11 00:11:19;;;;;;;3.38;2.45;;;;;;;21.64;47.09;100548.66;5031856;28;20053;-77
2022/07/11 00:13:45;;;;;;;3.47;3.00;;;;;;;21.51;47.14;100557.44;5023807;28;20523;-78
2022/07/11 00:16:13;;;;;;;2.47;2.28;;;;;;;21.51;47.33;100560.16;5034736;28;20045;-78
2022/07/11 00:18:39;;;;;;;2.60;2.40;;;;;;;21.42;47.38;100550.47;5007604;28;20073;-77
2022/07/11 00:21:06;;;;;;;2.80;2.60;;;;;;;21.45;47.51;100550.13;5028088;28;20049;-79
2022/07/11 00:23:33;;;;;;;2.72;2.53;;;;;;;21.48;47.57;100551.59;5016842;28;20048;-78
2022/07/11 00:26:00;;;;;;;2.47;2.28;;;;;;;21.51;47.89;100554.75;5042815;28;20450;-78
2022/07/11 00:28:27;;;;;;;2.90;2.47;;;;;;;21.54;48.05;100553.53;5042449;28;20047;-84
2022/07/11 00:30:54;;;;;;;3.05;2.58;;;;;;;21.57;47.53;100553.16;5035383;28;20120;-84
2022/07/11 00:33:21;;;;;;;3.33;2.45;;;;;;;21.56;47.80;100555.03;5029767;28;20489;-84
2022/07/11 00:35:47;;;;;;;3.13;2.35;;;;;;;21.58;48.11;100544.88;5024630;28;20048;-84
2022/07/11 00:38:14;;;;;;;2.65;2.40;;;;;;;21.59;47.87;100540.28;5030102;28;20044;-83
2022/07/11 00:40:41;;;;;;;2.53;2.33;;;;;;;21.58;47.68;100542.16;5032185;28;20049;-83
2022/07/11 00:43:09;;;;;;;3.10;2.78;;;;;;;21.57;47.78;100535.06;5028056;28;20109;-83
2022/07/11 00:45:36;;;;;;;3.42;2.70;;;;;;;21.57;47.78;100534.22;5028220;28;20496;-78
2022/07/11 00:48:04;;;;;;;3.83;2.70;;;;;;;21.57;48.35;100531.53;5028722;28;20120;-78
2022/07/11 00:50:30;;;;;;;3.08;2.58;;;;;;;21.55;48.55;100525.47;5008088;28;20133;-78
2022/07/11 00:52:57;;;;;;;3.13;2.92;;;;;;;21.52;48.59;100521.28;5022118;28;20036;-78
2022/07/11 00:55:26;;;;;;;4.72;2.50;;;;;;;21.50;48.67;100530.59;4996128;28;20037;-78
2022/07/11 00:57:52;;;;;;;3.53;2.80;;;;;;;21.51;48.42;100524.19;5024429;28;20048;-78
2022/07/11 01:00:19;;;;;;;2.55;2.30;;;;;;;21.48;48.61;100527.28;5034167;28;20460;-83
2022/07/11 01:02:46;;;;;;;3.00;2.20;;;;;;;21.45;48.84;100526.63;5033904;28;20048;-84
2022/07/11 01:05:14;;;;;;;2.53;2.13;;;;;;;21.45;48.91;100523.09;5025236;28;20044;-84
2022/07/11 01:07:41;;;;;;;3.33;2.75;;;;;;;21.45;49.05;100526.63;5013581;28;20052;-83
2022/07/11 01:10:08;;;;;;;3.88;2.60;;;;;;;21.45;49.31;100520.41;5006503;28;20452;-84
2022/07/11 01:12:35;;;;;;;2.63;2.42;;;;;;;21.44;49.20;100521.41;5031037;28;20400;-83
2022/07/11 01:15:03;;;;;;;2.53;2.33;;;;;;;21.43;49.12;100508.94;5049412;28;20894;-84
2022/07/11 01:17:30;;;;;;;2.70;2.40;;;;;;;21.44;48.93;100513.31;5033076;28;20049;-78
2022/07/11 01:19:57;;;;;;;2.65;2.40;;;;;;;21.41;48.99;100509.09;5001419;28;20037;-77
2022/07/11 01:22:24;;;;;;;3.70;2.65;;;;;;;21.41;49.14;100516.38;5027170;28;20044;-77
2022/07/11 01:24:51;;;;;;;2.78;2.38;;;;;;;21.39;49.21;100515.72;5048292;28;20476;-80
2022/07/11 01:27:19;;;;;;;2.80;2.60;;;;;;;21.37;49.25;100512.34;5007409;28;20114;-76
2022/07/11 01:29:46;;;;;;;2.58;2.38;;;;;;;21.35;49.17;100514.44;5030683;28;20551;-77
2022/07/11 01:32:12;;;;;;;2.45;2.25;;;;;;;21.33;49.26;100514.59;5025953;28;20728;-78
2022/07/11 01:34:39;;;;;;;2.63;2.40;;;;;;;21.31;49.28;100513.94;5027545;28;20065;-77
2022/07/11 01:37:06;;;;;;;4.75;2.65;;;;;;;21.30;49.56;100520.38;5026286;28;20053;-77
2022/07/11 01:39:32;;;;;;;2.70;2.35;;;;;;;21.30;49.35;100517.69;5043752;28;20055;-78
2022/07/11 01:41:59;;;;;;;2.58;2.38;;;;;;;21.31;49.53;100516.66;5006190;28;20041;-77
2022/07/11 01:44:26;;;;;;;2.35;2.15;;;;;;;21.29;49.38;100515.16;5004749;28;20048;-83
2022/07/11 01:46:53;;;;;;;6.35;2.95;;;;;;;21.26;49.78;100516.38;5046158;28;20044;-81
2022/07/11 01:49:19;;;;;;;3.88;2.55;;;;;;;21.24;49.74;100513.03;5039272;28;20048;-84
2022/07/11 01:51:47;;;;;;;3.50;2.60;;;;;;;21.24;50.08;100519.28;5008331;28;20051;-83
2022/07/11 01:54:13;;;;;;;2.75;2.55;;;;;;;21.23;49.68;100520.28;5035408;28;20058;-78
2022/07/11 01:56:40;;;;;;;2.28;2.17;;;;;;;21.19;50.03;100520.84;5031600;28;20503;-77
2022/07/11 01:59:07;;;;;;;2.65;2.45;;;;;;;21.19;49.89;100518.16;5049173;28;20132;-78
2022/07/11 02:01:34;;;;;;;2.35;2.15;;;;;;;21.16;49.88;100516.66;5001656;28;20489;-84
2022/07/11 02:04:00;;;;;;;4.95;2.50;;;;;;;21.18;50.05;100511.09;5017402;28;20068;-84
2022/07/11 02:06:28;;;;;;;2.70;2.50;;;;;;;21.18;50.31;100513.78;5030391;28;20549;-84
2022/07/11 02:08:55;;;;;;;2.78;2.58;;;;;;;21.16;50.08;100503.16;5017090;28;20086;-84
2022/07/11 02:11:21;;;;;;;2.95;2.28;;;;;;;21.18;50.34;100511.91;5046520;28;20048;-83
2022/07/11 02:13:48;;;;;;;2.47;2.28;;;;;;;21.17;50.19;100510.25;5020517;28;20045;-83
2022/07/11 02:16:16;;;;;;;3.47;2.42;;;;;;;21.15;50.49;100509.59;5034335;28;20056;-84
2022/07/11 02:18:44;;;;;;;3.08;2.63;;;;;;;21.16;50.50;100513.13;5014885;28;20148;-83
2022/07/11 02:21:12;;;;;;;3.08;2.55;;;;;;;21.14;50.52;100504.38;5033241;28;20044;-78
2022/07/11 02:23:39;;;;;;;2.67;2.42;;;;;;;21.10;50.71;100513.91;5031619;28;20422;-78
2022/07/11 02:26:06;;;;;;;3.88;2.33;;;;;;;21.10;50.82;100509.34;5008036;28;20600;-78
2022/07/11 02:28:34;;;;;;;3.20;2.60;;;;;;;21.09;50.65;100513.06;5030680;28;20073;-84
2022/07/11 02:31:01;;;;;;;2.50;2.30;;;;;;;21.06;50.85;100509.88;5047262;28;20036;-78
2022/07/11 02:33:27;;;;;;;4.35;2.63;;;;;;;21.01;50.87;100514.00;5047972;28;20037;-78
2022/07/11 02:35:54;;;;;;;2.97;2.53;;;;;;;21.02;50.88;100512.13;5022130;28;20042;-77
2022/07/11 02:38:21;;;;;;;2.38;2.17;;;;;;;20.99;51.15;100518.75;5029840;28;20488;-78
2022/07/11 02:40:48;;;;;;;2.53;2.40;;;;;;;20.96;51.18;100510.16;5029650;28;20039;-77
2022/07/11 02:43:15;;;;;;;5.10;2.80;;;;;;;20.97;51.18;100511.88;5024769;28;20045;-78
2022/07/11 02:45:42;;;;;;;2.40;2.20;;;;;;;20.97;51.40;100509.16;5023309;28;20048;-78
2022/07/11 02:48:09;;;;;;;8.13;3.20;;;;;;;20.92;51.69;100507.03;5004606;28;20121;-77
2022/07/11 02:50:35;;;;;;;3.15;2.85;;;;;;;20.96;51.50;100507.47;5032152;28;20049;-78
2022/07/11 02:53:02;;;;;;;2.90;2.60;;;;;;;20.96;51.88;100502.94;5027344;28;20102;-79
2022/07/11 02:55:29;;;;;;;2.85;2.60;;;;;;;20.93;51.84;100505.97;5034298;28;20047;-83
2022/07/11 02:57:56;;;;;;;2.45;2.30;;;;;;;20.95;52.07;100497.72;5025530;28;20049;-78
2022/07/11 03:00:22;;;;;;;2.97;2.78;;;;;;;20.90;52.11;100495.56;5017338;28;20049;-77
2022/07/11 03:02:49;;;;;;;3.10;2.55;;;;;;;20.92;51.91;100498.09;5014213;28;20044;-78
2022/07/11 03:05:16;;;;;;;3.13;2.80;;;;;;;20.94;51.80;100502.28;5020600;28;20111;-77
2022/07/11 03:07:42;;;;;;;2.38;2.28;;;;;;;20.93;52.09;100497.03;5052977;28;20058;-77
2022/07/11 03:10:09;;;;;;;4.15;2.45;;;;;;;20.91;52.41;100499.09;5029382;28;20144;-84
2022/07/11 03:12:38;;;;;;;4.50;2.58;;;;;;;20.90;52.26;100498.25;5026613;28;20049;-85
2022/07/11 03:15:05;;;;;;;2.63;2.42;;;;;;;20.90;52.23;100502.81;4999664;28;20103;-80
2022/07/11 03:17:32;;;;;;;3.42;3.13;;;;;;;20.91;52.29;100499.09;5002290;28;20045;-83
2022/07/11 03:20:00;;;;;;;3.05;2.85;;;;;;;20.90;52.26;100498.25;5032072;28;20406;-82
2022/07/11 03:22:29;;;;;;;2.80;2.60;;;;;;;20.95;52.11;100508.50;5040911;28;20041;-82
2022/07/11 03:24:56;;;;;;;2.60;2.17;;;;;;;20.94;51.90;100496.00;5005466;28;20107;-82
2022/07/11 03:27:22;;;;;;;4.47;2.97;;;;;;;20.90;52.35;100500.13;5012040;28;20045;-83
2022/07/11 03:29:50;;;;;;;2.90;2.70;;;;;;;20.89;52.22;100502.00;5014487;28;20089;-82
2022/07/11 03:32:20;;;;;;;3.47;2.60;;;;;;;20.86;52.34;100496.94;5012735;28;20056;-82
2022/07/11 03:37:41;;;;;;;3.08;2.42;;;;;;;20.82;52.49;100495.66;4993431;28;20041;-83
2022/07/11 03:40:09;;;;;;;3.10;2.55;;;;;;;20.79;52.36;100498.75;5036263;28;20053;-82
2022/07/11 03:42:35;;;;;;;2.92;2.60;;;;;;;20.78;52.50;100495.19;5030267;28;20055;-81
2022/07/11 03:45:03;;;;;;;3.25;2.95;;;;;;;20.77;52.65;100503.47;5060249;28;20056;-81
2022/07/11 03:47:29;;;;;;;2.97;2.78;;;;;;;20.70;52.84;100497.16;5022093;28;20198;-82
2022/07/11 03:49:56;;;;;;;2.60;2.40;;;;;;;20.69;53.05;100501.72;5017307;28;20045;-83
2022/07/11 03:52:23;;;;;;;2.47;2.28;;;;;;;20.63;54.02;100498.91;5026225;28;20496;-83
2022/07/11 03:54:51;;;;;;;2.97;2.70;;;;;;;20.64;54.44;100508.69;4974982;28;20048;-83
2022/07/11 03:57:17;;;;;;;2.60;2.40;;;;;;;20.63;54.37;100496.22;5022289;28;20040;-81
2022/07/11 03:59:44;;;;;;;4.45;2.53;;;;;;;20.62;54.38;100502.63;5001844;28;20056;-81
2022/07/11 04:02:12;;;;;;;3.53;3.03;;;;;;;20.55;54.82;100506.06;4995762;28;20052;-81
2022/07/11 04:04:38;;;;;;;2.78;2.47;;;;;;;20.57;54.85;100501.31;5028295;28;20053;-83
2022/07/11 04:07:05;;;;;;;2.67;2.47;;;;;;;20.60;55.10;100505.50;5024432;28;20052;-82
2022/07/11 04:09:32;;;;;;;3.85;2.63;;;;;;;20.57;55.25;100504.03;5029379;28;20052;-82
2022/07/11 04:11:59;;;;;;;3.42;2.75;;;;;;;20.56;55.66;100502.34;5021016;28;20044;-81
2022/07/11 04:14:26;;;;;;;3.22;2.90;;;;;;;20.55;55.88;100513.31;5031121;28;20052;-82
2022/07/11 04:16:52;;;;;;;3.80;3.00;;;;;;;20.52;55.97;100506.41;5027645;28;20040;-82
2022/07/11 04:19:19;;;;;;;3.15;2.78;;;;;;;20.52;55.88;100513.66;5015159;28;20396;-82
2022/07/11 04:21:46;;;;;;;2.83;2.63;;;;;;;20.48;56.26;100507.81;5013905;28;20044;-81
2022/07/11 04:24:13;;;;;;;3.13;2.75;;;;;;;20.50;56.15;100508.44;5013709;28;20033;-81
2022/07/11 04:26:40;;;;;;;3.40;2.90;;;;;;;20.50;56.49;100513.00;5041187;28;20048;-82
2022/07/11 04:29:07;;;;;;;3.15;2.92;;;;;;;20.52;56.51;100511.78;4996436;28;20056;-81
2022/07/11 04:31:34;;;;;;;3.53;3.22;;;;;;;20.52;56.70;100516.38;5019156;28;20064;-81
2022/07/11 04:34:01;;;;;;;2.60;2.40;;;;;;;20.52;57.32;100514.50;5007459;28;20129;-82
2022/07/11 04:36:27;;;;;;;3.67;2.90;;;;;;;20.53;57.68;100508.09;5027372;28;20078;-82
2022/07/11 04:38:54;;;;;;;3.13;2.83;;;;;;;20.51;57.54;100512.84;5028534;28;20052;-82
2022/07/11 04:41:21;;;;;;;4.22;2.53;;;;;;;20.53;57.41;100510.78;5029766;28;20397;-81
2022/07/11 04:43:50;;;;;;;2.72;2.53;;;;;;;20.51;57.11;100512.00;5043810;28;20147;-82
2022/07/11 04:46:17;;;;;;;2.60;2.40;;;;;;;20.56;57.16;100512.31;5044934;28;20049;-82
2022/07/11 04:48:44;;;;;;;3.72;2.70;;;;;;;20.57;57.10;100516.69;5014714;28;20072;-82
2022/07/11 04:51:10;;;;;;;3.17;2.88;;;;;;;20.58;56.79;100513.81;4987661;28;20053;-83
2022/07/11 04:53:37;;;;;;;3.67;2.95;;;;;;;20.61;56.94;100523.41;5008523;28;20112;-82
2022/07/11 04:56:05;;;;;;;3.53;2.90;;;;;;;20.60;56.94;100517.13;5015192;28;20166;-81
2022/07/11 04:58:32;;;;;;;3.30;3.00;;;;;;;20.62;56.76;100519.66;5051585;28;20490;-81
2022/07/11 05:00:59;;;;;;;4.13;3.10;;;;;;;20.60;56.80;100522.53;5042666;28;20072;-81
2022/07/11 05:03:26;;;;;;;3.45;3.15;;;;;;;20.62;56.64;100521.53;5042938;28;20048;-82
2022/07/11 05:05:52;;;;;;;5.35;3.20;;;;;;;20.59;56.73;100520.88;5014279;28;20522;-81
2022/07/11 05:08:19;;;;;;;3.58;3.28;;;;;;;20.60;56.66;100524.41;5034490;28;20381;-82
2022/07/11 05:10:46;;;;;;;4.57;3.53;;;;;;;20.60;56.78;100527.09;5026082;28;20041;-82
2022/07/11 05:13:12;;;;;;;3.05;2.85;;;;;;;20.60;56.80;100527.09;5026012;28;20125;-81
2022/07/11 05:15:39;;;;;;;3.47;2.78;;;;;;;20.60;57.09;100527.09;5020131;28;20502;-81
2022/07/11 05:18:06;;;;;;;2.90;2.70;;;;;;;20.57;57.14;100524.78;5061165;28;20064;-81
2022/07/11 05:20:33;;;;;;;3.10;2.90;;;;;;;20.55;57.45;100521.41;5009894;28;20489;-82
2022/07/11 05:22:59;;;;;;;4.05;2.90;;;;;;;20.54;57.61;100525.13;5027031;28;20044;-83
2022/07/11 05:25:26;;;;;;;3.50;3.20;;;;;;;20.53;57.64;100521.59;5025288;28;20044;-83
2022/07/11 05:27:53;;;;;;;3.40;3.10;;;;;;;20.52;57.89;100525.28;5014665;28;20045;-82
2022/07/11 05:30:20;;;;;;;3.67;3.15;;;;;;;20.53;57.71;100534.22;5017399;28;20565;-81
2022/07/11 05:32:47;;;;;;;3.58;3.28;;;;;;;20.49;57.39;100531.06;4990089;28;20111;-81
2022/07/11 05:35:13;;;;;;;3.35;3.05;;;;;;;20.53;57.55;100536.91;5014411;28;20134;-81
2022/07/11 05:37:40;;;;;;;5.93;3.42;;;;;;;20.52;57.53;100530.69;5033206;28;20047;-81
2022/07/11 05:40:09;;;;;;;3.47;3.20;;;;;;;20.57;58.31;100535.56;4974548;28;20049;-82
2022/07/11 05:42:36;;;;;;;2.92;2.63;;;;;;;20.57;58.82;100539.09;5025068;28;20057;-81
2022/07/11 05:45:02;;;;;;;2.85;2.65;;;;;;;20.59;58.79;100537.06;5020542;28;20106;-82
2022/07/11 05:47:29;;;;;;;4.07;3.08;;;;;;;20.60;58.79;100535.19;5017681;28;20037;-81
2022/07/11 05:49:56;;;;;;;5.90;3.10;;;;;;;20.59;58.92;100537.06;5046902;28;20048;-82
2022/07/11 05:52:22;;;;;;;3.78;3.15;;;;;;;20.59;58.56;100536.22;5022828;28;20043;-81
2022/07/11 05:54:49;;;;;;;4.22;3.83;;;;;;;20.64;58.47;100532.97;5014127;28;20679;-82
2022/07/11 05:57:17;;;;;;;4.50;3.03;;;;;;;20.65;58.24;100538.19;5039273;28;20052;-81
2022/07/11 05:59:46;;;;;;;3.90;3.17;;;;;;;20.65;58.40;100529.25;5016674;28;20771;-81
2022/07/11 06:02:13;;;;;;;3.72;3.15;;;;;;;20.67;58.03;100532.59;5031014;28;20044;-81
2022/07/11 06:04:42;;;;;;;4.90;3.15;;;;;;;20.72;58.26;100527.50;5019712;28;20421;-83
2022/07/11 06:07:10;;;;;;;4.18;3.40;;;;;;;20.75;58.17;100524.41;5020070;28;20126;-83
2022/07/11 06:09:37;;;;;;;3.63;3.30;;;;;;;20.76;58.42;100523.38;5047390;28;20042;-82
2022/07/11 06:12:04;;;;;;;3.42;3.15;;;;;;;20.85;58.41;100533.06;5029701;28;20106;-81
2022/07/11 06:14:30;;;;;;;3.72;3.42;;;;;;;20.86;58.49;100526.63;5049800;28;21934;-81
2022/07/11 06:16:57;;;;;;;3.72;3.38;;;;;;;20.91;58.64;100524.22;5018920;28;20049;-77
2022/07/11 06:19:25;;;;;;;8.73;3.80;;;;;;;20.97;57.93;100525.38;4999447;28;20044;-82
2022/07/11 06:21:52;;;;;;;3.55;3.25;;;;;;;21.03;57.54;100530.00;5034170;28;20037;-82
2022/07/11 06:24:19;;;;;;;3.95;3.60;;;;;;;21.05;57.24;100524.44;5017488;28;20446;-81
2022/07/11 06:26:46;;;;;;;5.82;4.15;;;;;;;21.00;57.25;100536.63;5035783;28;20799;-81
2022/07/11 06:29:13;;;;;;;5.13;3.63;;;;;;;21.01;57.15;100532.03;5031742;28;20032;-83
2022/07/11 06:31:39;;;;;;;3.90;3.55;;;;;;;21.02;57.15;100529.16;5017558;28;20072;-83
2022/07/11 06:34:06;;;;;;;3.65;3.35;;;;;;;21.05;57.13;100535.22;5013159;28;20048;-83
2022/07/11 06:36:33;;;;;;;5.85;3.92;;;;;;;21.06;57.09;100524.22;5040244;28;20514;-83
2022/07/11 06:39:00;;;;;;;4.22;3.47;;;;;;;21.05;57.23;100538.75;5026429;28;20048;-82
2022/07/11 06:41:26;;;;;;;4.93;3.45;;;;;;;21.11;57.25;100540.69;5015516;28;20041;-82
2022/07/11 06:43:53;;;;;;;5.57;3.13;;;;;;;21.11;57.25;100529.91;5034132;28;20052;-81
2022/07/11 06:46:20;;;;;;;5.00;4.03;;;;;;;21.12;57.09;100534.28;5016411;28;20056;-81
2022/07/11 06:48:48;;;;;;;5.35;4.00;;;;;;;21.16;56.70;100530.16;5014556;28;20064;-81
2022/07/11 06:51:15;;;;;;;5.50;3.42;;;;;;;21.24;56.89;100531.94;5019194;28;20611;-81
2022/07/11 06:53:41;;;;;;;4.47;3.20;;;;;;;21.31;56.73;100542.84;5045326;28;20048;-81
2022/07/11 06:56:08;;;;;;;3.50;3.20;;;;;;;21.37;56.62;100532.13;5054372;28;20084;-82
2022/07/11 06:58:35;;;;;;;6.07;3.55;;;;;;;21.38;56.42;100536.50;5034965;28;20040;-81
2022/07/11 07:01:05;;;;;;;4.13;3.28;;;;;;;21.35;55.91;100539.56;5030313;28;20045;-83
2022/07/11 07:03:33;;;;;;;3.53;3.22;;;;;;;21.26;56.19;100538.00;5001976;28;20048;-82
2022/07/11 07:06:00;;;;;;;5.13;3.35;;;;;;;21.23;56.51;100536.50;5032637;28;20058;-81
2022/07/11 07:08:28;;;;;;;5.53;3.55;;;;;;;21.29;56.29;100536.78;5040226;28;20034;-81
2022/07/11 07:10:55;;;;;;;3.53;3.17;;;;;;;21.34;56.29;100531.66;5016279;28;20090;-82
2022/07/11 07:13:25;;;;;;;3.53;2.90;;;;;;;21.40;56.51;100531.78;5034897;28;20045;-80
2022/07/11 07:15:53;;;;;;;3.92;3.63;;;;;;;21.49;56.26;100521.66;5045138;28;20404;-82
2022/07/11 07:18:20;;;;;;;3.30;2.95;;;;;;;21.53;56.08;100522.16;5029571;28;20048;-80
2022/07/11 07:20:49;;;;;;;4.75;3.13;;;;;;;21.59;56.36;100519.50;5031370;28;20037;-79
2022/07/11 07:23:18;;;;;;;3.85;3.45;;;;;;;21.63;55.86;100520.81;5056944;28;20054;-78
2022/07/11 07:25:45;;;;;;;4.30;2.42;;;;;;;21.65;55.57;100531.41;5008585;28;20041;-78
2022/07/11 07:28:12;;;;;;;5.70;2.90;;;;;;;21.71;55.81;100519.00;5007277;28;20053;-79
2022/07/11 07:30:38;;;;;;;4.97;2.92;;;;;;;21.79;55.60;100511.59;5017190;28;20049;-78
2022/07/11 07:33:05;;;;;;;3.40;2.95;;;;;;;21.82;55.31;100522.03;5011333;28;20041;-78
2022/07/11 07:35:32;;;;;;;4.70;2.80;;;;;;;21.85;54.70;100526.22;5045275;28;20473;-78
2022/07/11 07:38:00;;;;;;;6.57;3.17;;;;;;;21.86;54.42;100517.91;5013278;28;20687;-81
2022/07/11 07:40:27;;;;;;;3.38;3.00;;;;;;;21.91;54.56;100521.94;4982693;28;20044;-83
2022/07/11 07:42:54;;;;;;;4.07;2.83;;;;;;;21.93;54.07;100522.53;5038910;28;20488;-83
2022/07/11 07:45:21;;;;;;;7.20;3.10;;;;;;;21.95;54.23;100518.63;5034164;28;20429;-83
2022/07/11 07:47:48;;;;;;;4.07;2.75;;;;;;;22.01;54.07;100517.84;5014852;28;20504;-83
2022/07/11 07:50:15;;;;;;;3.42;2.88;;;;;;;22.04;53.90;100509.34;5027504;28;20048;-83
2022/07/11 07:52:44;;;;;;;8.30;3.13;;;;;;;21.98;53.68;100517.38;5011046;28;20040;-83
2022/07/11 07:55:12;;;;;;;3.88;3.13;;;;;;;21.94;54.13;100514.25;5035099;28;20048;-82
2022/07/11 07:57:39;;;;;;;3.25;2.80;;;;;;;21.94;54.18;100513.41;5022958;28;20040;-82
2022/07/11 08:02:52;;;;;;;5.07;3.88;;;;;;;21.77;53.69;100507.41;4958290;28;20048;-82
2022/07/11 08:05:19;;;;;;;3.58;2.80;;;;;;;21.74;53.93;100507.81;5023271;28;20519;-80
2022/07/11 08:07:47;;;;;;;4.95;3.53;;;;;;;21.82;54.10;100511.22;5013603;28;20040;-79
2022/07/11 08:10:16;;;;;;;6.43;3.83;;;;;;;21.81;53.56;100506.84;5059678;28;20438;-80
2022/07/11 08:12:43;;;;;;;5.18;3.72;;;;;;;21.83;53.83;100506.63;5033139;28;20848;-81
2022/07/11 08:15:10;;;;;;;6.55;4.07;;;;;;;21.93;53.59;100509.03;5036797;28;20489;-81
2022/07/11 08:17:37;;;;;;;4.65;3.13;;;;;;;21.93;53.51;100506.31;5032110;28;20061;-82
2022/07/11 08:20:05;;;;;;;8.27;3.63;;;;;;;21.99;53.23;100516.38;5032032;28;20052;-81
2022/07/11 08:22:31;;;;;;;5.47;3.78;;;;;;;22.03;53.21;100512.25;5027520;28;20505;-80
2022/07/11 08:24:58;;;;;;;4.03;3.45;;;;;;;22.05;53.47;100516.44;5056053;28;20123;-79
2022/07/11 08:27:26;;;;;;;4.88;3.58;;;;;;;22.03;53.16;100515.81;5023705;28;20056;-80
2022/07/11 08:30:08;;;;;;;4.35;3.42;;;;;;;22.09;53.32;100501.50;4990950;28;20054;-83
2022/07/11 08:32:40;;;;;;;5.30;4.00;;;;;;;22.14;53.34;100503.63;5034599;28;20419;-79
2022/07/11 08:35:08;;;;;;;6.35;3.95;;;;;;;22.06;53.00;100511.88;4987395;28;20164;-83
2022/07/11 08:37:36;;;;;;;4.55;3.95;;;;;;;22.02;53.01;100514.13;5021707;28;20042;-83
2022/07/11 08:40:03;;;;;;;3.92;3.60;;;;;;;22.12;52.68;100505.69;5042301;28;20356;-80
2022/07/11 08:42:30;;;;;;;6.28;4.53;;;;;;;22.19;52.51;100498.50;5028592;28;20048;-80
2022/07/11 08:44:58;;;;;;;8.00;4.03;;;;;;;22.21;52.46;100496.44;5022276;28;20480;-80
2022/07/11 08:47:24;;;;;;;4.43;3.58;;;;;;;22.23;52.54;100499.75;5011707;28;20049;-80
2022/07/11 08:49:52;;;;;;;5.70;3.83;;;;;;;22.33;52.67;100492.13;5030612;28;20041;-81
2022/07/11 08:52:19;;;;;;;7.22;3.47;;;;;;;22.40;52.86;100502.19;5001341;28;20064;-80
2022/07/11 08:54:46;;;;;;;7.65;3.63;;;;;;;22.37;52.29;100487.19;5018848;28;20044;-81
2022/07/11 08:57:13;;;;;;;8.15;3.70;;;;;;;22.40;52.18;100494.06;5004910;28;20063;-79
2022/07/11 08:59:43;;;;;;;6.07;3.50;;;;;;;22.32;51.73;100497.75;5031603;28;20404;-80
2022/07/11 09:02:11;;;;;;;4.93;3.45;;;;;;;22.31;52.11;100494.22;5024063;28;20045;-79
2022/07/11 09:04:38;;;;;;;4.95;3.50;;;;;;;22.31;52.08;100490.66;5041531;28;20051;-79
2022/07/11 09:07:06;;;;;;;3.38;2.97;;;;;;;22.24;52.24;100495.22;5028749;28;20045;-81
2022/07/11 09:09:32;;;;;;;4.05;2.85;;;;;;;22.27;51.96;100487.53;5010940;28;20642;-82
2022/07/11 09:11:59;;;;;;;3.72;3.05;;;;;;;22.26;52.11;100493.97;5028668;28;20520;-81
2022/07/11 09:14:30;;;;;;;3.05;2.78;;;;;;;22.31;51.45;100487.94;5036151;28;20443;-83
2022/07/11 09:17:05;;;;;;;5.95;2.90;;;;;;;22.12;51.43;100486.75;5045778;28;20098;-83
2022/07/11 09:19:34;;;;;;;3.40;3.00;;;;;;;22.19;51.74;100479.56;5030591;28;20515;-84
2022/07/11 09:27:51;;;;;;;4.65;3.20;;;;;;;22.07;51.49;100478.38;5006386;28;20393;-86
2022/07/11 09:30:24;;;;;;;4.30;3.25;;;;;;;22.05;51.43;100480.44;5030475;28;20041;-83
2022/07/11 09:32:56;;;;;;;4.80;3.20;;;;;;;22.04;51.38;100478.78;4994567;28;20049;-84
2022/07/11 09:35:28;;;;;;;5.00;3.53;;;;;;;22.16;51.96;100485.34;5027182;28;20062;-83
2022/07/11 09:37:55;;;;;;;4.15;3.13;;;;;;;22.27;52.08;100492.09;5026708;28;20073;-84
2022/07/11 09:40:22;;;;;;;5.10;3.53;;;;;;;22.33;51.28;100485.88;5047745;28;20045;-83
2022/07/11 09:42:54;;;;;;;6.65;3.40;;;;;;;22.30;50.53;100487.13;5008368;28;20741;-80
2022/07/11 09:45:24;;;;;;;4.55;3.30;;;;;;;22.21;50.83;100476.63;5031026;28;20048;-80
2022/07/11 09:47:54;;;;;;;5.43;3.40;;;;;;;22.18;51.23;100488.66;5022631;28;20396;-80
2022/07/11 09:50:27;;;;;;;3.80;3.17;;;;;;;22.26;50.49;100482.28;5032767;28;20411;-80
2022/07/11 09:53:13;;;;;;;4.05;3.28;;;;;;;22.26;51.27;100488.56;5029527;28;20429;-80
2022/07/11 09:55:41;;;;;;;4.05;3.28;;;;;;;22.23;51.00;100486.22;4987906;28;20051;-80
2022/07/11 09:58:21;;;;;;;4.47;3.78;;;;;;;22.18;51.25;100485.94;5001381;28;20052;-80
2022/07/11 10:00:54;;;;;;;6.70;3.72;;;;;;;22.13;51.47;100483.00;5001542;28;20423;-83
2022/07/11 10:03:23;;;;;;;4.40;3.33;;;;;;;22.25;51.97;100484.16;5002876;28;20044;-82
2022/07/11 10:06:11;;;;;;;6.88;3.88;;;;;;;22.37;51.18;100491.75;4946061;28;20099;-83
2022/07/11 10:08:39;;;;;;;4.40;4.00;;;;;;;22.44;50.42;100489.91;5016657;28;20052;-82
2022/07/11 10:11:08;;;;;;;4.60;3.38;;;;;;;22.44;49.98;100488.06;5030524;28;20682;-82
2022/07/11 10:13:35;;;;;;;5.75;3.47;;;;;;;22.42;50.42;100489.31;5040488;28;20041;-82
2022/07/11 10:16:06;;;;;;;5.30;3.22;;;;;;;22.42;50.49;100492.00;5024375;28;20060;-82
2022/07/11 10:18:45;;;;;;;3.30;3.00;;;;;;;22.42;49.93;100492.00;5025956;28;20373;-82
2022/07/11 10:21:16;;;;;;;4.55;3.05;;;;;;;22.51;50.17;100486.22;5008844;28;20053;-83
2022/07/11 10:24:16;;;;;;;3.97;3.05;;;;;;;22.33;48.75;100492.13;5028612;28;20041;-82
2022/07/11 10:26:54;;;;;;;3.22;2.90;;;;;;;22.32;48.62;100497.75;5012160;28;20480;-83
2022/07/11 10:29:33;;;;;;;4.53;3.03;;;;;;;22.29;48.80;100498.16;5000888;28;20056;-84
2022/07/11 10:32:08;;;;;;;5.25;2.80;;;;;;;22.40;49.14;100497.59;5023337;28;20094;-78
2022/07/11 10:34:40;;;;;;;5.57;3.25;;;;;;;22.46;49.48;100493.25;5022300;28;20048;-82
2022/07/11 10:37:08;;;;;;;4.43;3.40;;;;;;;22.50;49.71;100495.38;5049452;28;20044;-79
2022/07/11 10:40:01;;;;;;;6.15;3.15;;;;;;;22.52;49.30;100490.63;4996363;28;20055;-80
2022/07/11 10:42:40;;;;;;;3.95;3.00;;;;;;;22.55;49.96;100494.81;4994628;28;20116;-80
2022/07/11 10:45:09;;;;;;;4.88;3.45;;;;;;;22.60;49.68;100495.03;4994894;28;20525;-82
2022/07/11 10:47:43;;;;;;;5.00;3.15;;;;;;;22.66;49.22;100496.94;5031992;28;20037;-83
2022/07/11 10:50:38;;;;;;;6.68;3.65;;;;;;;22.73;48.75;100492.41;4989060;28;20044;-83
2022/07/11 10:53:10;;;;;;;5.35;3.70;;;;;;;22.65;49.09;100481.75;4995941;28;20080;-83
2022/07/11 10:56:22;;;;;;;3.58;2.90;;;;;;;22.80;48.55;100480.78;4956279;28;20145;-83
2022/07/11 10:59:16;;;;;;;3.55;2.90;;;;;;;22.88;48.20;100484.16;4903797;28;20068;-82
2022/07/11 11:02:05;;;;;;;6.05;3.15;;;;;;;22.80;48.28;100480.78;5003388;28;20045;-82
2022/07/11 11:04:58;;;;;;;4.57;3.25;;;;;;;22.79;48.42;100477.22;4930087;28;20092;-82
2022/07/11 11:07:27;;;;;;;5.10;2.83;;;;;;;22.88;48.85;100486.03;4955100;28;20513;-84
2022/07/11 11:09:54;;;;;;;4.78;3.03;;;;;;;22.86;48.65;100488.09;5001248;28;20045;-83
2022/07/11 11:13:00;;;;;;;3.38;3.05;;;;;;;22.88;48.17;100478.75;4989270;28;20050;-82
2022/07/11 11:15:46;;;;;;;4.00;3.38;;;;;;;22.88;48.70;100484.16;4950555;28;20397;-81
2022/07/11 11:18:21;;;;;;;4.43;3.00;;;;;;;22.94;48.10;100472.50;4982542;28;20045;-83
2022/07/11 11:21:04;;;;;;;3.53;2.92;;;;;;;23.01;48.06;100471.75;4971440;28;20074;-84
2022/07/11 11:23:35;;;;;;;;;;;;;;;22.94;48.60;100471.69;4948265;28;20043;-84
2022/07/11 11:26:12;;;;;;;3.40;3.10;;;;;;;23.00;48.90;100473.63;4997276;28;20306;-83
2022/07/11 11:28:57;;;;;;;3.88;3.08;;;;;;;22.98;47.93;100473.00;5003546;28;20546;-84
2022/07/11 11:31:32;;;;;;;4.35;3.17;;;;;;;23.05;48.47;100473.88;4947730;28;20142;-84
2022/07/11 11:34:01;;;;;;;4.28;3.00;;;;;;;23.12;48.28;100471.16;4956689;28;20047;-84
2022/07/11 11:41:28;;;;;;;4.68;3.28;;;;;;;23.14;48.40;100472.63;4963139;28;20038;-83
2022/07/11 11:43:58;;;;;;;6.00;3.00;;;;;;;23.10;48.06;100468.69;4940652;28;20057;-83
2022/07/11 11:46:27;;;;;;;4.78;2.90;;;;;;;23.08;48.53;100465.34;4982478;28;20051;-83
2022/07/11 11:53:39;;;;;;;5.20;3.28;;;;;;;23.10;48.12;100468.69;5016641;28;20111;-84